createdAt,value
2022-12-01T00:02:17.356Z,29.8
2022-12-01T00:09:00.219Z,28.9
2022-12-01T00:15:30.548Z,28.4
2022-12-01T00:23:29.977Z,30.4
2022-12-01T00:36:35.323Z,27.3
2022-12-01T00:42:25.147Z,28.2
2022-12-01T00:48:16.589Z,25.1
2022-12-01T00:54:08.037Z,25.2
2022-12-01T00:59:59.815Z,26.9
2022-12-01T01:05:50.868Z,24.3
2022-12-01T01:11:42.286Z,22.1
2022-12-01T01:17:33.583Z,23.3
2022-12-01T01:23:25.176Z,21.9
2022-12-01T01:29:16.918Z,25.1
2022-12-01T01:35:09.479Z,24.3
2022-12-01T01:41:02.189Z,26.9
2022-12-01T01:46:58.265Z,26.2
2022-12-01T01:52:53.170Z,27.6
2022-12-01T01:58:46.669Z,25.2
2022-12-01T02:04:37.482Z,25.2
2022-12-01T02:10:29.877Z,28
2022-12-01T02:16:26.080Z,26
2022-12-01T02:22:17.652Z,28.6
2022-12-01T02:28:10.626Z,30.4
2022-12-01T02:34:10.195Z,27.9
2022-12-01T02:40:03.091Z,28
2022-12-01T02:45:57.199Z,26.7
2022-12-01T02:57:55.702Z,27.3
2022-12-01T03:03:53.392Z,28.4
2022-12-01T03:09:43.503Z,31.2
2022-12-01T03:15:32.891Z,32.3
2022-12-01T03:21:25.454Z,33.2
2022-12-01T03:27:18.267Z,33.5
2022-12-01T03:33:09.708Z,36.9
2022-12-01T03:39:02.195Z,38
2022-12-01T03:44:54.263Z,37.6
2022-12-01T03:50:46.313Z,39
2022-12-01T03:56:38.317Z,38.5
2022-12-01T04:02:32.038Z,38.9
2022-12-01T04:08:24.367Z,42.4
2022-12-01T04:14:16.452Z,43.9
2022-12-01T04:20:08.694Z,45.5
2022-12-01T04:26:00.506Z,44.4
2022-12-01T04:31:52.487Z,45
2022-12-01T04:37:45.123Z,46.9
2022-12-01T04:43:37.792Z,47.9
2022-12-01T04:49:29.443Z,49
2022-12-01T04:55:20.612Z,51.6
2022-12-01T05:01:10.782Z,49.6
2022-12-01T05:07:04.595Z,50.9
2022-12-01T05:12:55.623Z,55
2022-12-01T05:18:45.469Z,50
2022-12-01T05:24:34.709Z,55.2
2022-12-01T05:30:32.254Z,58
2022-12-01T05:36:23.905Z,58.5
2022-12-01T05:42:16.066Z,58
2022-12-01T05:48:07.957Z,57.4
2022-12-01T05:54:01.812Z,55.6
2022-12-01T05:59:54.506Z,55.2
2022-12-01T06:05:47.149Z,49.9
2022-12-01T06:11:43.908Z,53.6
2022-12-01T06:17:45.833Z,57.3
2022-12-01T06:23:36.989Z,58.6
2022-12-01T06:29:29.641Z,58.5
2022-12-01T06:35:19.612Z,67.8
2022-12-01T06:41:11.419Z,64.4
2022-12-01T06:54:05.734Z,64.8
2022-12-01T07:00:52.324Z,68.2
2022-12-01T07:47:52.590Z,58.8
2022-12-01T08:00:10.120Z,54.9
2022-12-01T08:06:15.490Z,57.3
2022-12-01T08:12:32.869Z,57.3
2022-12-01T08:18:33.856Z,66
2022-12-01T08:24:32.172Z,60.7
2022-12-01T08:30:48.943Z,63.7
2022-12-01T08:36:49.244Z,58.6
2022-12-01T08:42:40.917Z,60.4
2022-12-01T08:48:55.293Z,54.9
2022-12-01T08:55:00.992Z,58.1
2022-12-01T09:07:26.511Z,73
2022-12-01T09:13:45.412Z,56.8
2022-12-01T09:19:58.135Z,55.2
2022-12-01T09:32:59.820Z,56.4
2022-12-01T09:39:13.625Z,57
2022-12-01T09:45:32.191Z,51.8
2022-12-01T10:05:25.533Z,52.3
2022-12-01T10:11:20.264Z,51.1
2022-12-01T10:17:13.698Z,49.3
2022-12-01T10:29:55.468Z,50.9
2022-12-01T11:20:04.870Z,33.2
2022-12-01T11:40:11.464Z,30.2
2022-12-01T11:53:07.064Z,26.8
2022-12-01T11:59:00.703Z,27.2
2022-12-01T12:04:53.175Z,26.1
2022-12-01T12:10:50.247Z,24
2022-12-01T12:16:43.168Z,27.7
2022-12-01T12:22:52.319Z,23.7
2022-12-01T12:29:21.615Z,23.9
2022-12-01T12:36:00.904Z,25.9
2022-12-01T12:48:57.241Z,29.2
2022-12-01T13:13:20.199Z,33.3
2022-12-01T13:19:15.937Z,36.3
2022-12-01T13:25:25.728Z,37.1
2022-12-01T13:45:04.172Z,42.7
2022-12-01T13:58:14.211Z,45.6
2022-12-01T14:04:16.724Z,51.4
2022-12-01T14:10:50.842Z,55.8
2022-12-01T14:17:21.358Z,56.9
2022-12-01T14:23:35.872Z,58.4
2022-12-01T14:36:28.087Z,61.6
2022-12-01T14:42:58.309Z,66.4
2022-12-01T15:09:45.292Z,74.9
2022-12-01T15:15:56.285Z,72.7
2022-12-01T18:17:18.327Z,70
2022-12-01T21:43:09.622Z,71.6
2022-12-01T21:48:59.710Z,74.3
2022-12-01T21:54:55.876Z,63.9
2022-12-01T22:00:50.091Z,62.8
2022-12-01T22:06:42.348Z,64.8
2022-12-01T22:12:34.213Z,60.8
2022-12-01T22:18:30.073Z,59.1
2022-12-01T22:24:21.671Z,58.5
2022-12-01T22:30:12.284Z,61.6
2022-12-01T22:36:02.382Z,57.9
2022-12-01T22:41:57.442Z,58.7
2022-12-01T22:47:50.282Z,56.6
2022-12-01T22:53:40.269Z,56.8
2022-12-01T22:59:30.158Z,58.6
2022-12-01T23:05:21.666Z,56.4
2022-12-01T23:11:11.671Z,53.7
2022-12-01T23:17:03.507Z,54.4
2022-12-01T23:22:54.023Z,52.3
2022-12-01T23:28:47.274Z,56.2
2022-12-01T23:34:39.223Z,49.8
2022-12-01T23:40:32.112Z,47.5
2022-12-01T23:46:35.723Z,46.1
2022-12-01T23:52:26.079Z,49.5
2022-12-01T23:58:18.235Z,47.3
